Racecast

Bridan Watkins

East End Lightning T&F Youth Development (VA) · 11 · Compare head to head

what a rating means
100 is the average runner in the athlete's pool; a rating of 133 means 33% faster than that average runner. Ratings are distance-normalised and course-adjusted, so a hard course and a fast track land on one number. Each pool (high school boys, college women, middle school…) has its own average, and the HS-equivalent view puts every pool on the high-school scale.
Athlete rating 88.2 2026 TF season
Best race 92.8 TF
Races 84
Seasons 3 2024 — 2026

RankedNation #146292·VA #3913·Team #23 ?

Speed rating — all races

Track & Field

TF speed rating

2026 TF 86.2

East End Lightning T&F Youth Development (VA) · Grade 11

Date Meet Event Result Place Rating Difficulty PR/SR Flags
2026-06-13 AAU Virginia District Qualifier - South 800m 2:40.81 4th · 1st on team 92.8 -0.9% ★PR ★R SR RSR
2026-06-13 AAU Virginia District Qualifier - South 80mh 17.13 4th · 2nd on team -0.9%
2026-06-13 AAU Virginia District Qualifier - South 400m 1:10.26 11th · 1st on team -0.9% ★PR SR
2026-05-30 Va Beach Flames Invite 800m 2:49.5 5th · 1st on team 89.0 +0.1% RSR
2026-05-30 Va Beach Flames Invite 400m 1:12.3 23rd · 2nd on team +0.1%
2026-05-30 Va Beach Flames Invite 80mh 17.1 6th · 1st on team +0.1% ★PR SR
2026-05-16 2026 Technique Relays shot 20' 9.50" -1.1%
2026-05-16 2026 Technique Relays 800m 2:49.78 2nd · 1st on team 87.8 -1.1%
2026-05-16 2026 Technique Relays 400m 1:11.07 15th · 1st on team -1.1% PR SR
2026-05-09 VA "Legends" T & F Youth Invite 80mh 18.51 7th · 1st on team -0.9% PR SR
2026-03-06 AAU Indoor National Championship 800m 2:49.11 28th · 1st on team 88.5 -1.0% PR SR RSR
2026-02-28 BWSP Queens and Kings Championships 55mh 12.02 6th · 1st on team 0.0%
2026-02-28 BWSP Queens and Kings Championships 800m 2:53.43 5th · 1st on team 86.9 0.0% SR RSR
2026-02-28 BWSP Queens and Kings Championships 400m 1:11.4 10th · 1st on team 0.0% PR SR
2026-02-22 3rd Annual HRH Winter Storm Classic 800m 2:54.7 5th · 1st on team 86.2 0.0%
2026-02-22 3rd Annual HRH Winter Storm Classic 55mh 11.8 6th · 1st on team 0.0% ★PR SR
2026-02-22 3rd Annual HRH Winter Storm Classic 400m 1:18.23 25th · 1st on team 0.0%
2026-01-31 BWSP Queens and Kings - Meet 3 400m 1:13.97 15th · 1st on team 0.0%
2026-01-31 BWSP Queens and Kings - Meet 3 800m 2:55.78 4th · 1st on team 85.7 0.0%
2026-01-31 BWSP Queens and Kings - Meet 3 55mh 13.97 3rd · 1st on team 0.0%
2026-01-17 BWSP Queens and Kings - Meet 2 400m 1:15.52 16th · 1st on team 0.0%
2026-01-17 BWSP Queens and Kings - Meet 2 55mh 12.22 2nd · 1st on team 0.0%
2026-01-17 BWSP Queens and Kings - Meet 2 800m 2:54.69 3rd · 1st on team 86.2 0.0%
2026-01-11 Lighting Track Classic 60mh 12.9 12th · 2nd on team -1.0% PR SR
2026-01-11 Lighting Track Classic 800m 3:06.59 8th · 1st on team 80.2 -1.0%
2026-01-11 Lighting Track Classic 60mh 12.71 11th · 1st on team -1.0% ★PR SR
2026-01-11 Lighting Track Classic 400m 1:14.21 14th · 1st on team -1.0%
2026-01-03 BWSP Queens and Kings - Meet 1 1500m 6:00.27 5th · 1st on team 86.8 0.0% SR RSR
2026-01-03 BWSP Queens and Kings - Meet 1 800m 3:03.14 8th · 1st on team 82.3 0.0%
2026-01-03 BWSP Queens and Kings - Meet 1 55mh 12.16 3rd · 1st on team 0.0% PR SR
2025-12-20 2025 Howard White Holiday Track Classic 400m 1:13.61 9th · 1st on team 0.0% PR SR
2025-12-20 2025 Howard White Holiday Track Classic 800m 3:01.98 5th · 1st on team 82.7 0.0%
2025-12-20 2025 Howard White Holiday Track Classic 200m 33.07 13th · 4th on team 0.0% ★PR SR
2025-12-14 VB Oceanfront Invitational 400m 1:16.94 2nd · 2nd on team -1.0% SR
2025-12-14 VB Oceanfront Invitational 200m 34.41 3rd · 2nd on team -1.0% PR SR
2025-12-14 VB Oceanfront Invitational 800m 2:54.26 4th · 2nd on team 85.8 -1.0% SR RSR

2025 TF 83.3

East End Lightning T&F Youth Development (VA) · Grade 10

Date Meet Event Result Place Rating Difficulty PR/SR Flags
2025-07-12 Cannonball Cooper Invite discus DNS -0.4%
2025-06-25 AAU Track & Field Region 5 Qualifier discus 38-07 -0.9%
2025-06-25 AAU Track & Field Region 5 Qualifier 800m 2:50.56 4th · 1st on team 87.5 -0.9% PR SR
2025-06-25 AAU Track & Field Region 5 Qualifier 1500m 5:37.47 3rd · 1st on team 91.7 -0.9% ★PR SR
2025-06-14 AAU Virginia District Qualifier (Southern) discus 38-00 -1.7%
2025-06-14 AAU Virginia District Qualifier (Southern) 800m 2:51.04 2nd · 1st on team 86.5 -1.7% PR SR
2025-06-14 AAU Virginia District Qualifier (Southern) 1500m 5:42.81 2nd · 1st on team 89.5 -1.7%
2025-05-31 Va Beach Flames Invite discus DNS +0.1%
2025-05-31 Va Beach Flames Invite 1500m 5:41.79 3rd · 1st on team 91.9 +0.1% R RSR
2025-05-31 Va Beach Flames Invite 400m 1:16.15 34th · 2nd on team +0.1% PR SR
2025-05-25 HR Hurricanes CAT 5 Invite discus 30' 4" -1.1%
2025-05-25 HR Hurricanes CAT 5 Invite shot 17' 11" -1.1%
2025-05-25 HR Hurricanes CAT 5 Invite 1500m 5:39.35 5th · 1st on team 90.9 -1.1% PR R SR RSR
2025-05-10 Legends Invitational hosted by Eastend Lightning 1500m 5:54.15 9th · 1st on team 87.6 -0.7%
2025-05-10 Legends Invitational hosted by Eastend Lightning 800m 3:07.28 12th · 1st on team 79.9 -0.7%
2025-05-04 Queen Harrison Youth Invite 1500m 6:01.99 4th · 1st on team 85.4 -0.9%
2025-05-04 Queen Harrison Youth Invite 400m 1:17.41 18th · 3rd on team -0.9% PR SR
2025-05-04 Queen Harrison Youth Invite 800m 3:07.89 8th · 2nd on team 79.4 -0.9%
2025-04-27 TRACK 757 Classic 400m 1:23.75 26th · 2nd on team -0.6% PR SR
2025-04-27 TRACK 757 Classic 800m 3:09.78 7th · 1st on team 79.1 -0.6%
2025-04-27 TRACK 757 Classic 1500m 5:45.67 3rd · 1st on team 90.0 -0.6% PR R SR RSR
2025-03-07 AAU Indoor National Championships 1500m 6:15.05 19th · 1st on team 82.6 -1.0%
2025-03-07 AAU Indoor National Championships 800m 3:17.85 31st · 1st on team 75.6 -1.0%
2025-02-22 BWSP Queens and Kings Championships shot 15' 9.50" +1.1%
2025-02-22 BWSP Queens and Kings Championships 800m 3:27.02 9th · 2nd on team 73.5 +1.1%
2025-02-22 BWSP Queens and Kings Championships 1500m 6:43.44 5th · 2nd on team 78.3 +1.1%
2025-02-01 BWSP Queens and Kings - Meet 3 shot 15' 9.50" +1.1%
2025-02-01 BWSP Queens and Kings - Meet 3 800m 3:12.46 4th · 2nd on team 79.1 +1.1%
2025-02-01 BWSP Queens and Kings - Meet 3 1500m 6:09.55 3rd · 2nd on team 85.4 +1.1% PR R SR RSR
2025-01-18 BWSP Queens and Kings - Meet 2 shot 14' 3.50" +1.1%
2025-01-18 BWSP Queens and Kings - Meet 2 1500m 6:09.72 4th · 2nd on team 85.4 +1.1% PR R SR RSR
2025-01-18 BWSP Queens and Kings - Meet 2 800m 3:12.1 6th · 2nd on team 79.2 +1.1%
2025-01-04 BWSP Queens and Kings - Meet 1 shot 16' 0" 0.0%
2025-01-04 BWSP Queens and Kings - Meet 1 1500m 6:29.54 2nd · 2nd on team 80.1 0.0% SR RSR
2025-01-04 BWSP Queens and Kings - Meet 1 800m 3:05.87 3rd · 1st on team 81.0 0.0% PR SR RSR
2024-08-03 AAU Junior Olympic Games 1500m 6:50.07 82nd · 1st on team 75.2 -1.4% SR RSR

2024 TF 75.9

Eastend Lightning Track & Fiel (VA) · Grade 9

Date Meet Event Result Place Rating Difficulty PR/SR Flags
2024-06-29 AAU Region 05 National Qualifier shot 14-05.50 -0.9%
2024-06-29 AAU Region 05 National Qualifier 1500m 6:12.49 3rd · 1st on team 83.0 -0.9% PR R SR RSR
2024-06-22 Superior Elite Invitational shot DNS -0.9%
2024-06-09 AAU Virginia North District Qualifier shot 14-08.00 +1.9%
2024-06-09 AAU Virginia North District Qualifier 1500m 6:47.97 2nd · 1st on team 78.0 +1.9% PR SR
2024-06-09 AAU Virginia North District Qualifier 800m 3:28.24 7th · 1st on team 73.8 +1.9%
2024-05-11 2024 EE Lightning "Legends" Invite shot 12-02.50 -1.9%
2024-05-11 2024 EE Lightning "Legends" Invite 800m 3:27.41 8th · 4th on team 71.3 -1.9%
2024-05-11 2024 EE Lightning "Legends" Invite 1500m 6:59.02 4th · 2nd on team 73.1 -1.9%
2024-05-05 Queen Harrison Invite javelin DNS -0.9%
2024-05-05 Queen Harrison Invite 800m 3:10.5 3rd · 1st on team 78.4 -0.9% PR R SR RSR
2024-05-05 Queen Harrison Invite 1500m 6:58.61 2nd · 1st on team 73.9 -0.9% PR SR